sensor_id;sensor_type;location;lat;lon;timestamp;P1;durP1;ratioP1;P2;durP2;ratioP2
71679;SDS011;59512;42.662;23.254;2024-03-17T00:01:19;41.30;;;25.03;;
71679;SDS011;59512;42.662;23.254;2024-03-17T00:03:45;49.92;;;25.90;;
71679;SDS011;59512;42.662;23.254;2024-03-17T00:06:10;57.40;;;29.87;;
71679;SDS011;59512;42.662;23.254;2024-03-17T00:08:36;58.57;;;30.37;;
71679;SDS011;59512;42.662;23.254;2024-03-17T00:11:01;53.00;;;28.20;;
71679;SDS011;59512;42.662;23.254;2024-03-17T00:13:26;68.30;;;33.93;;
71679;SDS011;59512;42.662;23.254;2024-03-17T00:15:52;56.97;;;30.17;;
71679;SDS011;59512;42.662;23.254;2024-03-17T00:18:18;46.03;;;26.73;;
71679;SDS011;59512;42.662;23.254;2024-03-17T00:20:43;48.08;;;27.63;;
71679;SDS011;59512;42.662;23.254;2024-03-17T00:23:09;44.60;;;25.77;;
71679;SDS011;59512;42.662;23.254;2024-03-17T00:25:37;45.57;;;25.73;;
71679;SDS011;59512;42.662;23.254;2024-03-17T00:28:03;43.58;;;26.48;;
71679;SDS011;59512;42.662;23.254;2024-03-17T00:30:28;43.20;;;26.67;;
71679;SDS011;59512;42.662;23.254;2024-03-17T00:32:54;60.43;;;31.07;;
71679;SDS011;59512;42.662;23.254;2024-03-17T00:35:19;61.67;;;33.03;;
71679;SDS011;59512;42.662;23.254;2024-03-17T00:37:50;61.17;;;31.58;;
71679;SDS011;59512;42.662;23.254;2024-03-17T00:40:16;60.17;;;32.45;;
71679;SDS011;59512;42.662;23.254;2024-03-17T00:42:42;58.00;;;30.42;;
71679;SDS011;59512;42.662;23.254;2024-03-17T00:45:10;46.67;;;27.60;;
71679;SDS011;59512;42.662;23.254;2024-03-17T00:47:36;47.58;;;27.52;;
71679;SDS011;59512;42.662;23.254;2024-03-17T00:50:02;47.13;;;27.58;;
71679;SDS011;59512;42.662;23.254;2024-03-17T00:52:29;46.35;;;27.48;;
71679;SDS011;59512;42.662;23.254;2024-03-17T00:54:54;44.93;;;26.60;;
71679;SDS011;59512;42.662;23.254;2024-03-17T00:57:20;48.67;;;27.97;;
71679;SDS011;59512;42.662;23.254;2024-03-17T00:59:45;44.50;;;28.03;;
71679;SDS011;59512;42.662;23.254;2024-03-17T01:02:11;54.40;;;29.73;;
71679;SDS011;59512;42.662;23.254;2024-03-17T01:04:41;54.58;;;28.83;;
71679;SDS011;59512;42.662;23.254;2024-03-17T01:07:07;46.58;;;28.10;;
71679;SDS011;59512;42.662;23.254;2024-03-17T01:09:32;48.33;;;27.67;;
71679;SDS011;59512;42.662;23.254;2024-03-17T01:11:58;48.15;;;28.08;;
71679;SDS011;59512;42.662;23.254;2024-03-17T01:14:23;45.07;;;27.43;;
71679;SDS011;59512;42.662;23.254;2024-03-17T01:16:50;43.03;;;26.17;;
71679;SDS011;59512;42.662;23.254;2024-03-17T01:19:16;42.65;;;26.20;;
71679;SDS011;59512;42.662;23.254;2024-03-17T01:21:42;45.00;;;27.20;;
71679;SDS011;59512;42.662;23.254;2024-03-17T01:24:07;48.13;;;27.77;;
71679;SDS011;59512;42.662;23.254;2024-03-17T01:26:33;48.77;;;28.17;;
71679;SDS011;59512;42.662;23.254;2024-03-17T01:28:58;51.13;;;29.67;;
71679;SDS011;59512;42.662;23.254;2024-03-17T01:31:23;46.43;;;28.73;;
71679;SDS011;59512;42.662;23.254;2024-03-17T01:33:50;47.15;;;27.52;;
71679;SDS011;59512;42.662;23.254;2024-03-17T01:36:15;49.67;;;28.43;;
71679;SDS011;59512;42.662;23.254;2024-03-17T01:38:41;47.17;;;28.00;;
71679;SDS011;59512;42.662;23.254;2024-03-17T01:41:06;43.73;;;26.73;;
71679;SDS011;59512;42.662;23.254;2024-03-17T01:43:32;48.47;;;27.42;;
71679;SDS011;59512;42.662;23.254;2024-03-17T01:45:58;48.73;;;27.50;;
71679;SDS011;59512;42.662;23.254;2024-03-17T01:48:24;48.10;;;27.77;;
71679;SDS011;59512;42.662;23.254;2024-03-17T01:50:51;51.00;;;28.80;;
71679;SDS011;59512;42.662;23.254;2024-03-17T01:53:18;47.67;;;28.13;;
71679;SDS011;59512;42.662;23.254;2024-03-17T01:55:45;47.40;;;28.17;;
71679;SDS011;59512;42.662;23.254;2024-03-17T01:58:11;49.33;;;29.02;;
71679;SDS011;59512;42.662;23.254;2024-03-17T02:00:36;51.13;;;27.77;;
71679;SDS011;59512;42.662;23.254;2024-03-17T02:03:04;53.20;;;30.08;;
71679;SDS011;59512;42.662;23.254;2024-03-17T02:05:33;45.23;;;25.83;;
71679;SDS011;59512;42.662;23.254;2024-03-17T02:07:59;41.97;;;26.08;;
71679;SDS011;59512;42.662;23.254;2024-03-17T02:10:25;45.15;;;25.75;;
71679;SDS011;59512;42.662;23.254;2024-03-17T02:12:51;44.40;;;25.87;;
71679;SDS011;59512;42.662;23.254;2024-03-17T02:15:17;42.63;;;25.10;;
71679;SDS011;59512;42.662;23.254;2024-03-17T02:17:42;49.95;;;27.35;;
71679;SDS011;59512;42.662;23.254;2024-03-17T02:20:08;45.53;;;26.38;;
71679;SDS011;59512;42.662;23.254;2024-03-17T02:22:36;46.47;;;27.80;;
71679;SDS011;59512;42.662;23.254;2024-03-17T02:25:02;48.63;;;29.47;;
71679;SDS011;59512;42.662;23.254;2024-03-17T02:27:28;52.45;;;31.60;;
71679;SDS011;59512;42.662;23.254;2024-03-17T02:29:54;50.35;;;29.63;;
71679;SDS011;59512;42.662;23.254;2024-03-17T02:32:19;50.33;;;29.07;;
71679;SDS011;59512;42.662;23.254;2024-03-17T02:34:47;44.75;;;27.25;;
71679;SDS011;59512;42.662;23.254;2024-03-17T02:37:13;50.63;;;29.17;;
71679;SDS011;59512;42.662;23.254;2024-03-17T02:39:38;50.47;;;28.65;;
71679;SDS011;59512;42.662;23.254;2024-03-17T02:42:07;49.20;;;28.60;;
71679;SDS011;59512;42.662;23.254;2024-03-17T02:44:35;51.67;;;28.70;;
71679;SDS011;59512;42.662;23.254;2024-03-17T02:47:01;62.40;;;31.83;;
71679;SDS011;59512;42.662;23.254;2024-03-17T02:49:33;55.60;;;30.83;;
71679;SDS011;59512;42.662;23.254;2024-03-17T02:52:05;59.72;;;32.25;;
71679;SDS011;59512;42.662;23.254;2024-03-17T02:54:32;53.80;;;30.33;;
71679;SDS011;59512;42.662;23.254;2024-03-17T02:56:58;52.63;;;29.73;;
71679;SDS011;59512;42.662;23.254;2024-03-17T02:59:23;49.50;;;28.95;;
71679;SDS011;59512;42.662;23.254;2024-03-17T03:01:49;47.30;;;28.43;;
71679;SDS011;59512;42.662;23.254;2024-03-17T03:04:15;51.08;;;28.90;;
71679;SDS011;59512;42.662;23.254;2024-03-17T03:06:40;51.13;;;28.60;;
71679;SDS011;59512;42.662;23.254;2024-03-17T03:09:06;48.80;;;28.87;;
71679;SDS011;59512;42.662;23.254;2024-03-17T03:11:37;48.97;;;28.08;;
71679;SDS011;59512;42.662;23.254;2024-03-17T03:14:04;49.33;;;28.67;;
71679;SDS011;59512;42.662;23.254;2024-03-17T03:16:29;47.93;;;27.37;;
71679;SDS011;59512;42.662;23.254;2024-03-17T03:18:55;47.53;;;27.77;;
71679;SDS011;59512;42.662;23.254;2024-03-17T03:21:20;46.30;;;28.43;;
71679;SDS011;59512;42.662;23.254;2024-03-17T03:23:46;47.45;;;27.70;;
71679;SDS011;59512;42.662;23.254;2024-03-17T03:26:12;49.20;;;28.85;;
71679;SDS011;59512;42.662;23.254;2024-03-17T03:28:37;48.58;;;28.40;;
71679;SDS011;59512;42.662;23.254;2024-03-17T03:31:03;47.50;;;27.63;;
71679;SDS011;59512;42.662;23.254;2024-03-17T03:33:29;47.70;;;27.65;;
71679;SDS011;59512;42.662;23.254;2024-03-17T03:35:54;47.77;;;28.60;;
71679;SDS011;59512;42.662;23.254;2024-03-17T03:38:20;43.50;;;27.30;;
71679;SDS011;59512;42.662;23.254;2024-03-17T03:40:47;43.10;;;26.60;;
71679;SDS011;59512;42.662;23.254;2024-03-17T03:43:13;39.78;;;23.98;;
71679;SDS011;59512;42.662;23.254;2024-03-17T03:45:39;37.97;;;23.52;;
71679;SDS011;59512;42.662;23.254;2024-03-17T03:48:05;46.85;;;27.08;;
71679;SDS011;59512;42.662;23.254;2024-03-17T03:50:31;45.83;;;27.23;;
71679;SDS011;59512;42.662;23.254;2024-03-17T03:52:57;45.95;;;26.80;;
71679;SDS011;59512;42.662;23.254;2024-03-17T03:55:22;59.97;;;32.97;;
71679;SDS011;59512;42.662;23.254;2024-03-17T03:57:57;56.40;;;31.75;;
71679;SDS011;59512;42.662;23.254;2024-03-17T04:00:22;58.53;;;33.58;;
71679;SDS011;59512;42.662;23.254;2024-03-17T04:02:49;59.45;;;34.72;;
71679;SDS011;59512;42.662;23.254;2024-03-17T04:05:15;54.40;;;32.28;;
71679;SDS011;59512;42.662;23.254;2024-03-17T04:07:41;53.17;;;31.53;;
71679;SDS011;59512;42.662;23.254;2024-03-17T04:10:08;54.80;;;32.25;;
71679;SDS011;59512;42.662;23.254;2024-03-17T04:12:34;50.30;;;29.58;;
71679;SDS011;59512;42.662;23.254;2024-03-17T04:15:00;47.80;;;28.40;;
71679;SDS011;59512;42.662;23.254;2024-03-17T04:17:25;49.38;;;27.90;;
71679;SDS011;59512;42.662;23.254;2024-03-17T04:19:52;47.17;;;29.37;;
71679;SDS011;59512;42.662;23.254;2024-03-17T04:22:18;51.40;;;30.67;;
71679;SDS011;59512;42.662;23.254;2024-03-17T04:24:45;48.17;;;29.67;;
71679;SDS011;59512;42.662;23.254;2024-03-17T04:27:11;47.13;;;28.15;;
71679;SDS011;59512;42.662;23.254;2024-03-17T04:29:38;45.58;;;27.10;;
71679;SDS011;59512;42.662;23.254;2024-03-17T04:32:04;45.90;;;27.13;;
71679;SDS011;59512;42.662;23.254;2024-03-17T04:34:30;41.78;;;26.80;;
71679;SDS011;59512;42.662;23.254;2024-03-17T04:36:56;45.30;;;26.67;;
71679;SDS011;59512;42.662;23.254;2024-03-17T04:39:22;42.53;;;26.33;;
71679;SDS011;59512;42.662;23.254;2024-03-17T04:41:48;45.27;;;26.77;;
71679;SDS011;59512;42.662;23.254;2024-03-17T04:44:14;44.45;;;26.98;;
71679;SDS011;59512;42.662;23.254;2024-03-17T04:46:40;43.80;;;26.33;;
71679;SDS011;59512;42.662;23.254;2024-03-17T04:49:06;42.40;;;26.50;;
71679;SDS011;59512;42.662;23.254;2024-03-17T04:51:31;44.13;;;26.43;;
71679;SDS011;59512;42.662;23.254;2024-03-17T04:53:58;40.90;;;25.88;;
71679;SDS011;59512;42.662;23.254;2024-03-17T04:56:24;42.30;;;26.60;;
71679;SDS011;59512;42.662;23.254;2024-03-17T04:58:49;39.53;;;25.83;;
71679;SDS011;59512;42.662;23.254;2024-03-17T05:01:14;40.23;;;26.27;;
71679;SDS011;59512;42.662;23.254;2024-03-17T05:03:40;40.80;;;25.97;;
71679;SDS011;59512;42.662;23.254;2024-03-17T05:06:05;38.43;;;24.40;;
71679;SDS011;59512;42.662;23.254;2024-03-17T05:08:31;41.87;;;25.60;;
71679;SDS011;59512;42.662;23.254;2024-03-17T05:11:01;45.67;;;27.10;;
71679;SDS011;59512;42.662;23.254;2024-03-17T05:13:30;43.53;;;25.10;;
71679;SDS011;59512;42.662;23.254;2024-03-17T05:15:59;40.58;;;24.77;;
71679;SDS011;59512;42.662;23.254;2024-03-17T05:18:25;40.37;;;24.43;;
71679;SDS011;59512;42.662;23.254;2024-03-17T05:21:24;40.40;;;24.25;;
71679;SDS011;59512;42.662;23.254;2024-03-17T05:23:43;42.80;;;27.40;;
71679;SDS011;59512;42.662;23.254;2024-03-17T05:26:09;42.90;;;27.27;;
71679;SDS011;59512;42.662;23.254;2024-03-17T05:28:34;46.35;;;27.77;;
71679;SDS011;59512;42.662;23.254;2024-03-17T05:30:59;47.50;;;27.20;;
71679;SDS011;59512;42.662;23.254;2024-03-17T05:33:25;44.63;;;28.13;;
71679;SDS011;59512;42.662;23.254;2024-03-17T05:35:55;47.53;;;28.48;;
71679;SDS011;59512;42.662;23.254;2024-03-17T05:38:25;46.57;;;27.03;;
71679;SDS011;59512;42.662;23.254;2024-03-17T05:43:24;46.75;;;27.23;;
71679;SDS011;59512;42.662;23.254;2024-03-17T05:45:53;43.43;;;24.93;;
71679;SDS011;59512;42.662;23.254;2024-03-17T05:48:20;36.42;;;22.27;;
71679;SDS011;59512;42.662;23.254;2024-03-17T05:50:46;34.50;;;21.83;;
71679;SDS011;59512;42.662;23.254;2024-03-17T05:53:12;36.70;;;22.25;;
71679;SDS011;59512;42.662;23.254;2024-03-17T05:55:37;30.70;;;20.17;;
71679;SDS011;59512;42.662;23.254;2024-03-17T05:58:03;30.60;;;20.23;;
71679;SDS011;59512;42.662;23.254;2024-03-17T06:00:29;31.05;;;19.13;;
71679;SDS011;59512;42.662;23.254;2024-03-17T06:02:56;30.90;;;19.70;;
71679;SDS011;59512;42.662;23.254;2024-03-17T06:05:21;32.67;;;19.63;;
71679;SDS011;59512;42.662;23.254;2024-03-17T06:07:47;34.53;;;20.43;;
71679;SDS011;59512;42.662;23.254;2024-03-17T06:10:13;34.83;;;21.10;;
71679;SDS011;59512;42.662;23.254;2024-03-17T06:12:38;29.87;;;19.13;;
71679;SDS011;59512;42.662;23.254;2024-03-17T06:15:04;32.87;;;21.13;;
71679;SDS011;59512;42.662;23.254;2024-03-17T06:20:00;33.60;;;20.90;;
71679;SDS011;59512;42.662;23.254;2024-03-17T06:22:28;34.90;;;20.00;;
71679;SDS011;59512;42.662;23.254;2024-03-17T06:27:41;34.13;;;21.13;;
71679;SDS011;59512;42.662;23.254;2024-03-17T06:30:10;33.90;;;20.70;;
71679;SDS011;59512;42.662;23.254;2024-03-17T06:32:45;34.47;;;20.50;;
71679;SDS011;59512;42.662;23.254;2024-03-17T06:35:11;31.33;;;19.83;;
71679;SDS011;59512;42.662;23.254;2024-03-17T06:37:37;33.95;;;19.92;;
71679;SDS011;59512;42.662;23.254;2024-03-17T06:40:03;33.55;;;20.98;;
71679;SDS011;59512;42.662;23.254;2024-03-17T06:42:30;32.38;;;20.52;;
71679;SDS011;59512;42.662;23.254;2024-03-17T06:44:55;33.53;;;20.37;;
71679;SDS011;59512;42.662;23.254;2024-03-17T06:47:20;34.53;;;20.47;;
71679;SDS011;59512;42.662;23.254;2024-03-17T06:49:53;34.93;;;22.23;;
71679;SDS011;59512;42.662;23.254;2024-03-17T06:52:18;32.35;;;20.38;;
71679;SDS011;59512;42.662;23.254;2024-03-17T06:54:44;35.77;;;20.83;;
71679;SDS011;59512;42.662;23.254;2024-03-17T06:57:14;33.83;;;21.35;;
71679;SDS011;59512;42.662;23.254;2024-03-17T06:59:40;36.03;;;21.57;;
71679;SDS011;59512;42.662;23.254;2024-03-17T07:02:06;33.77;;;21.27;;
71679;SDS011;59512;42.662;23.254;2024-03-17T07:04:32;34.45;;;20.95;;
71679;SDS011;59512;42.662;23.254;2024-03-17T07:06:57;33.33;;;21.13;;
71679;SDS011;59512;42.662;23.254;2024-03-17T07:09:22;32.37;;;20.30;;
71679;SDS011;59512;42.662;23.254;2024-03-17T07:11:48;34.00;;;20.45;;
71679;SDS011;59512;42.662;23.254;2024-03-17T07:14:14;34.03;;;20.35;;
71679;SDS011;59512;42.662;23.254;2024-03-17T07:16:39;31.83;;;19.37;;
71679;SDS011;59512;42.662;23.254;2024-03-17T07:19:05;34.08;;;20.83;;
71679;SDS011;59512;42.662;23.254;2024-03-17T07:21:30;32.00;;;19.70;;
71679;SDS011;59512;42.662;23.254;2024-03-17T07:23:56;32.50;;;19.93;;
71679;SDS011;59512;42.662;23.254;2024-03-17T07:26:24;33.83;;;20.42;;
71679;SDS011;59512;42.662;23.254;2024-03-17T07:28:49;37.90;;;23.20;;
71679;SDS011;59512;42.662;23.254;2024-03-17T07:31:15;36.03;;;21.75;;
71679;SDS011;59512;42.662;23.254;2024-03-17T07:33:40;33.90;;;22.07;;
71679;SDS011;59512;42.662;23.254;2024-03-17T07:36:07;33.13;;;21.47;;
71679;SDS011;59512;42.662;23.254;2024-03-17T07:38:34;34.05;;;22.58;;
71679;SDS011;59512;42.662;23.254;2024-03-17T07:41:05;32.88;;;20.13;;
71679;SDS011;59512;42.662;23.254;2024-03-17T07:43:32;36.27;;;21.23;;
71679;SDS011;59512;42.662;23.254;2024-03-17T07:46:02;33.17;;;19.65;;
71679;SDS011;59512;42.662;23.254;2024-03-17T07:48:37;30.52;;;18.48;;
71679;SDS011;59512;42.662;23.254;2024-03-17T07:51:04;32.38;;;19.83;;
71679;SDS011;59512;42.662;23.254;2024-03-17T07:53:34;32.50;;;19.42;;
71679;SDS011;59512;42.662;23.254;2024-03-17T07:56:00;29.87;;;18.03;;
71679;SDS011;59512;42.662;23.254;2024-03-17T07:58:27;31.23;;;19.42;;
71679;SDS011;59512;42.662;23.254;2024-03-17T08:01:02;33.15;;;19.10;;
71679;SDS011;59512;42.662;23.254;2024-03-17T08:03:29;37.10;;;22.35;;
71679;SDS011;59512;42.662;23.254;2024-03-17T08:05:56;36.35;;;21.95;;
71679;SDS011;59512;42.662;23.254;2024-03-17T08:08:22;34.90;;;20.83;;
71679;SDS011;59512;42.662;23.254;2024-03-17T08:10:47;34.00;;;20.75;;
71679;SDS011;59512;42.662;23.254;2024-03-17T08:13:22;35.10;;;21.93;;
71679;SDS011;59512;42.662;23.254;2024-03-17T08:15:58;44.80;;;27.27;;
71679;SDS011;59512;42.662;23.254;2024-03-17T08:18:24;43.55;;;25.95;;
71679;SDS011;59512;42.662;23.254;2024-03-17T08:20:52;38.47;;;23.13;;
71679;SDS011;59512;42.662;23.254;2024-03-17T08:23:18;38.43;;;23.67;;
71679;SDS011;59512;42.662;23.254;2024-03-17T08:25:51;37.47;;;23.40;;
71679;SDS011;59512;42.662;23.254;2024-03-17T08:28:20;35.13;;;22.27;;
71679;SDS011;59512;42.662;23.254;2024-03-17T08:30:55;37.13;;;22.25;;
71679;SDS011;59512;42.662;23.254;2024-03-17T08:33:22;37.95;;;22.75;;
71679;SDS011;59512;42.662;23.254;2024-03-17T08:35:58;35.10;;;21.05;;
71679;SDS011;59512;42.662;23.254;2024-03-17T08:38:32;33.65;;;20.50;;
71679;SDS011;59512;42.662;23.254;2024-03-17T08:41:02;33.67;;;20.73;;
71679;SDS011;59512;42.662;23.254;2024-03-17T08:43:29;34.45;;;22.05;;
71679;SDS011;59512;42.662;23.254;2024-03-17T08:45:58;38.87;;;23.13;;
71679;SDS011;59512;42.662;23.254;2024-03-17T08:48:26;31.95;;;20.33;;
71679;SDS011;59512;42.662;23.254;2024-03-17T08:50:52;32.65;;;20.40;;
71679;SDS011;59512;42.662;23.254;2024-03-17T08:53:18;31.70;;;19.93;;
71679;SDS011;59512;42.662;23.254;2024-03-17T08:55:47;32.17;;;19.50;;
71679;SDS011;59512;42.662;23.254;2024-03-17T08:58:13;36.72;;;20.60;;
71679;SDS011;59512;42.662;23.254;2024-03-17T09:00:38;27.90;;;17.73;;
71679;SDS011;59512;42.662;23.254;2024-03-17T09:03:05;29.15;;;18.63;;
71679;SDS011;59512;42.662;23.254;2024-03-17T09:05:34;29.70;;;18.17;;
71679;SDS011;59512;42.662;23.254;2024-03-17T09:08:00;28.73;;;16.75;;
71679;SDS011;59512;42.662;23.254;2024-03-17T09:10:26;26.60;;;17.23;;
71679;SDS011;59512;42.662;23.254;2024-03-17T09:12:51;29.02;;;16.92;;
71679;SDS011;59512;42.662;23.254;2024-03-17T09:15:16;27.17;;;16.93;;
71679;SDS011;59512;42.662;23.254;2024-03-17T09:17:42;21.20;;;13.20;;
71679;SDS011;59512;42.662;23.254;2024-03-17T09:20:09;21.58;;;12.75;;
71679;SDS011;59512;42.662;23.254;2024-03-17T09:22:40;21.63;;;12.60;;
71679;SDS011;59512;42.662;23.254;2024-03-17T09:25:08;21.87;;;12.87;;
71679;SDS011;59512;42.662;23.254;2024-03-17T09:27:34;16.70;;;10.38;;
71679;SDS011;59512;42.662;23.254;2024-03-17T09:30:02;16.08;;;9.10;;
71679;SDS011;59512;42.662;23.254;2024-03-17T09:32:31;14.17;;;8.63;;
71679;SDS011;59512;42.662;23.254;2024-03-17T09:34:57;15.07;;;8.02;;
71679;SDS011;59512;42.662;23.254;2024-03-17T09:37:22;13.90;;;7.50;;
71679;SDS011;59512;42.662;23.254;2024-03-17T09:39:48;8.98;;;5.78;;
71679;SDS011;59512;42.662;23.254;2024-03-17T09:42:18;14.93;;;8.17;;
71679;SDS011;59512;42.662;23.254;2024-03-17T09:44:47;14.73;;;7.65;;
71679;SDS011;59512;42.662;23.254;2024-03-17T09:47:16;11.32;;;7.25;;
71679;SDS011;59512;42.662;23.254;2024-03-17T09:49:46;13.95;;;7.45;;
71679;SDS011;59512;42.662;23.254;2024-03-17T09:52:19;10.40;;;6.30;;
71679;SDS011;59512;42.662;23.254;2024-03-17T09:54:47;13.18;;;6.78;;
71679;SDS011;59512;42.662;23.254;2024-03-17T09:57:16;11.43;;;7.22;;
71679;SDS011;59512;42.662;23.254;2024-03-17T09:59:42;11.57;;;6.65;;
71679;SDS011;59512;42.662;23.254;2024-03-17T10:02:14;11.53;;;6.30;;
71679;SDS011;59512;42.662;23.254;2024-03-17T10:04:41;8.27;;;5.18;;
71679;SDS011;59512;42.662;23.254;2024-03-17T10:07:07;11.37;;;5.07;;
71679;SDS011;59512;42.662;23.254;2024-03-17T10:09:32;10.10;;;5.77;;
71679;SDS011;59512;42.662;23.254;2024-03-17T10:11:57;10.80;;;5.60;;
71679;SDS011;59512;42.662;23.254;2024-03-17T10:14:23;10.57;;;5.40;;
71679;SDS011;59512;42.662;23.254;2024-03-17T10:16:48;12.88;;;6.13;;
71679;SDS011;59512;42.662;23.254;2024-03-17T10:19:15;10.30;;;6.10;;
71679;SDS011;59512;42.662;23.254;2024-03-17T10:21:50;10.02;;;5.82;;
71679;SDS011;59512;42.662;23.254;2024-03-17T10:26:46;9.50;;;5.53;;
71679;SDS011;59512;42.662;23.254;2024-03-17T10:29:34;9.48;;;5.55;;
71679;SDS011;59512;42.662;23.254;2024-03-17T10:32:03;11.55;;;6.43;;
71679;SDS011;59512;42.662;23.254;2024-03-17T10:34:31;10.88;;;6.15;;
71679;SDS011;59512;42.662;23.254;2024-03-17T10:37:08;11.03;;;6.10;;
71679;SDS011;59512;42.662;23.254;2024-03-17T10:39:45;10.80;;;5.57;;
71679;SDS011;59512;42.662;23.254;2024-03-17T10:42:13;9.73;;;5.47;;
71679;SDS011;59512;42.662;23.254;2024-03-17T10:44:50;10.60;;;5.00;;
71679;SDS011;59512;42.662;23.254;2024-03-17T10:47:36;10.98;;;6.00;;
71679;SDS011;59512;42.662;23.254;2024-03-17T10:50:01;10.73;;;5.63;;
71679;SDS011;59512;42.662;23.254;2024-03-17T10:52:29;11.70;;;6.45;;
71679;SDS011;59512;42.662;23.254;2024-03-17T10:54:58;12.55;;;6.40;;
71679;SDS011;59512;42.662;23.254;2024-03-17T10:57:31;10.52;;;6.05;;
71679;SDS011;59512;42.662;23.254;2024-03-17T11:00:05;11.25;;;6.57;;
71679;SDS011;59512;42.662;23.254;2024-03-17T11:02:33;12.03;;;6.73;;
71679;SDS011;59512;42.662;23.254;2024-03-17T11:07:46;9.55;;;6.03;;
71679;SDS011;59512;42.662;23.254;2024-03-17T11:10:21;9.93;;;5.60;;
71679;SDS011;59512;42.662;23.254;2024-03-17T11:17:45;11.23;;;6.10;;
71679;SDS011;59512;42.662;23.254;2024-03-17T11:20:15;9.43;;;5.03;;
71679;SDS011;59512;42.662;23.254;2024-03-17T11:23:06;9.45;;;4.97;;
71679;SDS011;59512;42.662;23.254;2024-03-17T11:25:37;8.73;;;5.25;;
71679;SDS011;59512;42.662;23.254;2024-03-17T11:28:04;9.52;;;5.60;;
71679;SDS011;59512;42.662;23.254;2024-03-17T11:30:42;9.23;;;5.15;;
71679;SDS011;59512;42.662;23.254;2024-03-17T11:39:00;8.38;;;4.22;;
71679;SDS011;59512;42.662;23.254;2024-03-17T11:41:42;8.07;;;3.75;;
71679;SDS011;59512;42.662;23.254;2024-03-17T11:49:31;7.50;;;3.80;;
71679;SDS011;59512;42.662;23.254;2024-03-17T11:52:13;7.38;;;4.03;;
71679;SDS011;59512;42.662;23.254;2024-03-17T11:54:45;10.68;;;5.00;;
71679;SDS011;59512;42.662;23.254;2024-03-17T11:57:23;9.27;;;4.28;;
71679;SDS011;59512;42.662;23.254;2024-03-17T11:59:49;21.03;;;10.97;;
71679;SDS011;59512;42.662;23.254;2024-03-17T12:04:48;9.15;;;4.63;;
71679;SDS011;59512;42.662;23.254;2024-03-17T12:07:15;9.32;;;4.95;;
71679;SDS011;59512;42.662;23.254;2024-03-17T12:09:42;10.45;;;5.20;;
71679;SDS011;59512;42.662;23.254;2024-03-17T12:12:13;8.63;;;4.70;;
71679;SDS011;59512;42.662;23.254;2024-03-17T12:14:42;9.05;;;4.88;;
71679;SDS011;59512;42.662;23.254;2024-03-17T12:17:08;11.00;;;5.20;;
71679;SDS011;59512;42.662;23.254;2024-03-17T12:19:35;8.88;;;4.57;;
71679;SDS011;59512;42.662;23.254;2024-03-17T12:22:01;8.38;;;4.75;;
71679;SDS011;59512;42.662;23.254;2024-03-17T12:24:28;8.88;;;4.65;;
71679;SDS011;59512;42.662;23.254;2024-03-17T12:26:55;10.13;;;5.30;;
71679;SDS011;59512;42.662;23.254;2024-03-17T12:29:26;9.80;;;5.30;;
71679;SDS011;59512;42.662;23.254;2024-03-17T12:31:53;8.52;;;5.18;;
71679;SDS011;59512;42.662;23.254;2024-03-17T12:34:28;9.43;;;5.70;;
71679;SDS011;59512;42.662;23.254;2024-03-17T12:36:55;9.77;;;5.30;;
71679;SDS011;59512;42.662;23.254;2024-03-17T12:47:07;12.10;;;6.15;;
71679;SDS011;59512;42.662;23.254;2024-03-17T12:49:36;10.07;;;5.90;;
71679;SDS011;59512;42.662;23.254;2024-03-17T12:52:15;11.27;;;6.53;;
71679;SDS011;59512;42.662;23.254;2024-03-17T12:54:42;14.43;;;7.00;;
71679;SDS011;59512;42.662;23.254;2024-03-17T12:57:15;9.55;;;5.32;;
71679;SDS011;59512;42.662;23.254;2024-03-17T12:59:59;9.32;;;5.75;;
71679;SDS011;59512;42.662;23.254;2024-03-17T13:02:43;11.35;;;6.05;;
71679;SDS011;59512;42.662;23.254;2024-03-17T13:07:42;9.50;;;5.87;;
71679;SDS011;59512;42.662;23.254;2024-03-17T13:10:09;9.15;;;5.50;;
71679;SDS011;59512;42.662;23.254;2024-03-17T13:12:35;9.75;;;6.05;;
71679;SDS011;59512;42.662;23.254;2024-03-17T13:15:01;11.20;;;6.63;;
71679;SDS011;59512;42.662;23.254;2024-03-17T13:17:26;9.93;;;6.00;;
71679;SDS011;59512;42.662;23.254;2024-03-17T13:19:54;11.15;;;7.10;;
71679;SDS011;59512;42.662;23.254;2024-03-17T13:22:20;12.50;;;6.93;;
71679;SDS011;59512;42.662;23.254;2024-03-17T13:24:45;11.90;;;8.27;;
71679;SDS011;59512;42.662;23.254;2024-03-17T13:27:12;12.40;;;7.85;;
71679;SDS011;59512;42.662;23.254;2024-03-17T13:29:41;11.90;;;7.55;;
71679;SDS011;59512;42.662;23.254;2024-03-17T13:32:11;14.10;;;8.43;;
71679;SDS011;59512;42.662;23.254;2024-03-17T13:34:37;12.60;;;8.07;;
71679;SDS011;59512;42.662;23.254;2024-03-17T13:37:02;12.60;;;8.50;;
71679;SDS011;59512;42.662;23.254;2024-03-17T13:39:29;12.25;;;7.50;;
71679;SDS011;59512;42.662;23.254;2024-03-17T13:41:58;12.70;;;7.60;;
71679;SDS011;59512;42.662;23.254;2024-03-17T13:44:28;13.73;;;8.25;;
71679;SDS011;59512;42.662;23.254;2024-03-17T13:46:56;13.93;;;8.20;;
71679;SDS011;59512;42.662;23.254;2024-03-17T13:49:23;13.43;;;8.13;;
71679;SDS011;59512;42.662;23.254;2024-03-17T13:51:48;14.03;;;8.67;;
71679;SDS011;59512;42.662;23.254;2024-03-17T13:54:14;12.50;;;7.70;;
71679;SDS011;59512;42.662;23.254;2024-03-17T13:56:40;14.27;;;7.88;;
71679;SDS011;59512;42.662;23.254;2024-03-17T13:59:05;13.30;;;8.37;;
71679;SDS011;59512;42.662;23.254;2024-03-17T14:01:32;12.90;;;8.27;;
71679;SDS011;59512;42.662;23.254;2024-03-17T14:03:58;12.77;;;8.70;;
71679;SDS011;59512;42.662;23.254;2024-03-17T14:06:23;12.85;;;8.43;;
71679;SDS011;59512;42.662;23.254;2024-03-17T14:08:49;14.45;;;8.20;;
71679;SDS011;59512;42.662;23.254;2024-03-17T14:11:14;14.97;;;8.30;;
71679;SDS011;59512;42.662;23.254;2024-03-17T14:13:40;12.13;;;7.70;;
71679;SDS011;59512;42.662;23.254;2024-03-17T14:16:05;12.65;;;7.68;;
71679;SDS011;59512;42.662;23.254;2024-03-17T14:18:31;15.10;;;9.00;;
71679;SDS011;59512;42.662;23.254;2024-03-17T14:20:58;13.53;;;8.53;;
71679;SDS011;59512;42.662;23.254;2024-03-17T14:23:23;15.68;;;9.27;;
71679;SDS011;59512;42.662;23.254;2024-03-17T14:25:49;12.65;;;8.10;;
71679;SDS011;59512;42.662;23.254;2024-03-17T14:28:15;13.47;;;7.83;;
71679;SDS011;59512;42.662;23.254;2024-03-17T14:30:40;16.85;;;8.90;;
71679;SDS011;59512;42.662;23.254;2024-03-17T14:33:06;14.35;;;9.07;;
71679;SDS011;59512;42.662;23.254;2024-03-17T14:35:32;14.50;;;7.60;;
71679;SDS011;59512;42.662;23.254;2024-03-17T14:37:58;14.32;;;8.07;;
71679;SDS011;59512;42.662;23.254;2024-03-17T14:40:24;14.33;;;7.63;;
71679;SDS011;59512;42.662;23.254;2024-03-17T14:42:50;13.75;;;7.68;;
71679;SDS011;59512;42.662;23.254;2024-03-17T14:45:19;13.05;;;7.03;;
71679;SDS011;59512;42.662;23.254;2024-03-17T14:47:45;13.97;;;7.83;;
71679;SDS011;59512;42.662;23.254;2024-03-17T14:50:11;13.63;;;7.30;;
71679;SDS011;59512;42.662;23.254;2024-03-17T14:52:41;14.47;;;8.60;;
71679;SDS011;59512;42.662;23.254;2024-03-17T14:55:07;13.80;;;8.68;;
71679;SDS011;59512;42.662;23.254;2024-03-17T14:57:35;13.82;;;8.23;;